createdAt,value
2022-12-11T00:00:48.384Z,100677.00
2022-12-11T00:03:16.536Z,100676.00
2022-12-11T00:05:44.196Z,100678.00
2022-12-11T00:08:11.913Z,100662.00
2022-12-11T00:10:38.777Z,100670.00
2022-12-11T00:13:05.319Z,100665.00
2022-12-11T00:15:31.890Z,100669.00
2022-12-11T00:17:58.339Z,100663.00
2022-12-11T00:20:24.992Z,100666.00
2022-12-11T00:22:51.449Z,100674.00
2022-12-11T00:25:18.072Z,100673.00
2022-12-11T00:27:45.981Z,100663.00
2022-12-11T00:30:12.798Z,100665.00
2022-12-11T00:32:39.251Z,100656.00
2022-12-11T00:35:06.057Z,100661.00
2022-12-11T00:37:32.603Z,100659.00
2022-12-11T00:39:59.421Z,100654.00
2022-12-11T00:42:26.036Z,100645.00
2022-12-11T00:44:52.504Z,100649.00
2022-12-11T00:47:18.948Z,100655.00
2022-12-11T00:49:49.791Z,100657.00
2022-12-11T00:52:18.160Z,100664.00
2022-12-11T00:54:44.848Z,100670.00
2022-12-11T00:57:11.632Z,100664.00
2022-12-11T00:59:38.890Z,100660.00
2022-12-11T01:02:05.472Z,100667.00
2022-12-11T01:04:32.297Z,100659.00
2022-12-11T01:06:58.725Z,100655.00
2022-12-11T01:09:44.021Z,100652.00
2022-12-11T01:12:10.454Z,100661.00
2022-12-11T01:14:36.892Z,100662.00
2022-12-11T01:17:03.549Z,100671.00
2022-12-11T01:19:30.063Z,100664.00
2022-12-11T01:21:56.576Z,100665.00
2022-12-11T01:24:23.024Z,100664.00
2022-12-11T01:26:49.455Z,100660.00
2022-12-11T01:29:15.980Z,100672.00
2022-12-11T01:31:42.468Z,100674.00
2022-12-11T01:34:09.122Z,100676.00
2022-12-11T01:36:35.702Z,100681.00
2022-12-11T01:39:02.137Z,100673.00
2022-12-11T01:41:28.581Z,100677.00
2022-12-11T01:44:06.459Z,100662.00
2022-12-11T01:46:36.302Z,100674.00
2022-12-11T01:49:07.360Z,100671.00
2022-12-11T01:51:40.220Z,100665.00
2022-12-11T01:54:10.622Z,100656.00
2022-12-11T01:56:38.009Z,100666.00
2022-12-11T01:59:07.593Z,100668.00
2022-12-11T02:01:40.753Z,100658.00
2022-12-11T02:04:08.600Z,100662.00
2022-12-11T02:06:45.062Z,100661.00
2022-12-11T02:09:18.243Z,100665.00
2022-12-11T02:11:57.710Z,100660.00
2022-12-11T02:14:35.117Z,100666.00
2022-12-11T02:17:14.580Z,100661.00
2022-12-11T02:20:03.555Z,100664.00
2022-12-11T02:22:58.675Z,100659.00
2022-12-11T02:25:32.892Z,100663.00
2022-12-11T02:28:17.852Z,100669.00
2022-12-11T02:30:51.261Z,100660.00
2022-12-11T02:33:23.354Z,100655.00
2022-12-11T02:35:52.014Z,100660.00
2022-12-11T02:38:25.210Z,100651.00
2022-12-11T02:40:54.836Z,100661.00
2022-12-11T02:43:23.425Z,100655.00
2022-12-11T02:45:51.383Z,100660.00
2022-12-11T02:48:19.733Z,100660.00
2022-12-11T02:50:48.827Z,100667.00
2022-12-11T02:53:20.334Z,100662.00
2022-12-11T02:55:49.973Z,100669.00
2022-12-11T02:58:19.582Z,100664.00
2022-12-11T03:00:47.654Z,100674.00
2022-12-11T03:03:14.457Z,100662.00
2022-12-11T03:05:41.820Z,100664.00
2022-12-11T03:08:09.273Z,100664.00
2022-12-11T03:10:35.767Z,100660.00
2022-12-11T03:13:03.005Z,100669.00
2022-12-11T03:15:58.709Z,100665.00
2022-12-11T03:18:36.297Z,100667.00
2022-12-11T03:21:09.661Z,100664.00
2022-12-11T03:23:48.939Z,100664.00
2022-12-11T03:26:18.240Z,100669.00
2022-12-11T03:28:49.702Z,100669.00
2022-12-11T03:31:40.912Z,100667.00
2022-12-11T03:34:33.817Z,100668.00
2022-12-11T03:37:02.040Z,100678.00
2022-12-11T03:39:36.130Z,100663.00
2022-12-11T03:42:06.018Z,100665.00
2022-12-11T03:44:34.400Z,100677.00
2022-12-11T03:47:03.306Z,100672.00
2022-12-11T03:49:35.230Z,100669.00
2022-12-11T03:52:03.414Z,100666.00
2022-12-11T03:54:30.102Z,100661.00
2022-12-11T03:56:59.200Z,100664.00
2022-12-11T03:59:25.861Z,100668.00
2022-12-11T04:01:52.358Z,100663.00
2022-12-11T04:04:19.411Z,100665.00
2022-12-11T04:06:46.028Z,100662.00
2022-12-11T04:09:13.307Z,100653.00
2022-12-11T04:11:39.987Z,100664.00
2022-12-11T04:14:28.301Z,100662.00
2022-12-11T04:16:55.526Z,100662.00
2022-12-11T04:19:41.846Z,100657.00
2022-12-11T04:22:32.215Z,100649.00
2022-12-11T04:24:58.952Z,100651.00
2022-12-11T04:27:44.515Z,100651.00
2022-12-11T04:30:15.069Z,100653.00
2022-12-11T04:32:41.537Z,100660.00
2022-12-11T04:35:09.762Z,100649.00
2022-12-11T04:37:36.814Z,100642.00
2022-12-11T04:40:05.248Z,100641.00
2022-12-11T04:42:31.682Z,100634.00
2022-12-11T04:44:58.117Z,100638.00
2022-12-11T04:47:24.548Z,100643.00
2022-12-11T04:49:51.041Z,100649.00
2022-12-11T04:52:18.228Z,100647.00
2022-12-11T04:54:44.748Z,100650.00
2022-12-11T04:57:11.203Z,100655.00
2022-12-11T04:59:38.213Z,100656.00
2022-12-11T05:02:04.913Z,100645.00
2022-12-11T05:04:33.303Z,100648.00
2022-12-11T05:06:59.973Z,100646.00
2022-12-11T05:09:27.140Z,100648.00
2022-12-11T05:11:53.933Z,100654.00
2022-12-11T05:14:21.055Z,100645.00
2022-12-11T05:16:47.775Z,100648.00
2022-12-11T05:19:14.293Z,100647.00
2022-12-11T05:21:40.730Z,100631.00
2022-12-11T05:24:07.373Z,100626.00
2022-12-11T05:26:33.813Z,100627.00
2022-12-11T05:29:00.240Z,100628.00
2022-12-11T05:31:27.733Z,100635.00
2022-12-11T05:33:54.292Z,100640.00
2022-12-11T05:36:23.635Z,100627.00
2022-12-11T05:38:50.594Z,100635.00
2022-12-11T05:41:19.395Z,100627.00
2022-12-11T05:43:46.214Z,100634.00
2022-12-11T05:46:18.756Z,100636.00
2022-12-11T05:48:47.040Z,100630.00
2022-12-11T05:51:15.334Z,100638.00
2022-12-11T05:53:43.586Z,100641.00
2022-12-11T05:56:20.981Z,100636.00
2022-12-11T05:58:48.333Z,100629.00
2022-12-11T06:01:18.534Z,100629.00
2022-12-11T06:03:45.012Z,100630.00
2022-12-11T06:06:11.872Z,100637.00
2022-12-11T06:08:38.448Z,100631.00
2022-12-11T06:11:05.251Z,100623.00
2022-12-11T06:13:31.775Z,100623.00
2022-12-11T06:16:03.080Z,100633.00
2022-12-11T06:18:30.162Z,100629.00
2022-12-11T06:20:56.623Z,100632.00
2022-12-11T06:23:23.543Z,100617.00
2022-12-11T06:25:50.405Z,100624.00
2022-12-11T06:28:17.476Z,100611.00
2022-12-11T06:30:44.919Z,100622.00
2022-12-11T06:33:11.363Z,100625.00
2022-12-11T06:35:42.028Z,100624.00
2022-12-11T06:38:10.469Z,100630.00
2022-12-11T06:40:36.936Z,100635.00
2022-12-11T06:43:03.487Z,100633.00
2022-12-11T06:45:29.968Z,100634.00
2022-12-11T06:47:56.485Z,100639.00
2022-12-11T06:50:22.946Z,100639.00
2022-12-11T06:52:49.442Z,100615.00
2022-12-11T06:55:15.970Z,100630.00
2022-12-11T06:57:42.464Z,100642.00
2022-12-11T07:00:09.560Z,100633.00
2022-12-11T07:02:36.175Z,100641.00
2022-12-11T07:05:03.033Z,100646.00
2022-12-11T07:07:29.471Z,100646.00
2022-12-11T07:09:55.923Z,100640.00
2022-12-11T07:12:22.366Z,100650.00
2022-12-11T07:14:48.866Z,100640.00
2022-12-11T07:17:15.353Z,100648.00
2022-12-11T07:19:41.876Z,100635.00
2022-12-11T07:22:08.320Z,100641.00
2022-12-11T07:24:35.109Z,100636.00
2022-12-11T07:27:01.776Z,100631.00
2022-12-11T07:29:28.213Z,100634.00
2022-12-11T07:31:54.932Z,100640.00
2022-12-11T07:34:21.579Z,100647.00
2022-12-11T07:36:48.248Z,100651.00
2022-12-11T07:39:14.856Z,100651.00
2022-12-11T07:41:41.322Z,100654.00
2022-12-11T07:44:07.950Z,100634.00
2022-12-11T07:46:34.760Z,100643.00
2022-12-11T07:49:02.274Z,100656.00
2022-12-11T07:51:31.096Z,100653.00
2022-12-11T07:54:00.538Z,100652.00
2022-12-11T07:56:28.924Z,100647.00
2022-12-11T07:58:55.740Z,100641.00
2022-12-11T08:01:26.115Z,100638.00
2022-12-11T08:03:54.042Z,100638.00
2022-12-11T08:06:26.027Z,100651.00
2022-12-11T08:08:57.032Z,100637.00
2022-12-11T08:11:23.582Z,100650.00
2022-12-11T08:13:50.043Z,100644.00
2022-12-11T08:16:17.652Z,100633.00
2022-12-11T08:18:45.549Z,100639.00
2022-12-11T08:21:20.442Z,100641.00
2022-12-11T08:23:47.052Z,100639.00
2022-12-11T08:26:17.640Z,100640.00
2022-12-11T08:28:44.590Z,100656.00
2022-12-11T08:31:12.678Z,100656.00
2022-12-11T08:33:40.608Z,100655.00
2022-12-11T08:36:09.588Z,100651.00
2022-12-11T08:38:36.953Z,100654.00
2022-12-11T08:41:15.646Z,100655.00
2022-12-11T08:43:42.320Z,100655.00
2022-12-11T08:46:10.377Z,100655.00
2022-12-11T08:48:38.962Z,100668.00
2022-12-11T08:51:07.354Z,100667.00
2022-12-11T08:53:34.194Z,100666.00
2022-12-11T08:56:06.719Z,100668.00
2022-12-11T08:58:33.345Z,100665.00
2022-12-11T09:01:00.182Z,100662.00
2022-12-11T09:03:26.671Z,100650.00
2022-12-11T09:05:53.242Z,100658.00
2022-12-11T09:08:19.706Z,100654.00
2022-12-11T09:10:46.395Z,100655.00
2022-12-11T09:13:12.961Z,100657.00
2022-12-11T09:15:42.523Z,100656.00
2022-12-11T09:18:09.306Z,100664.00
2022-12-11T09:20:35.767Z,100669.00
2022-12-11T09:23:02.664Z,100654.00
2022-12-11T09:25:29.182Z,100666.00
2022-12-11T09:27:55.630Z,100656.00
2022-12-11T09:30:22.494Z,100646.00
2022-12-11T09:32:49.075Z,100656.00
2022-12-11T09:35:15.689Z,100647.00
2022-12-11T09:37:42.134Z,100653.00
2022-12-11T09:40:11.700Z,100640.00
2022-12-11T09:42:53.031Z,100638.00
2022-12-11T09:45:20.163Z,100644.00
2022-12-11T09:47:50.509Z,100642.00
2022-12-11T09:50:31.936Z,100636.00
2022-12-11T09:53:21.313Z,100638.00
2022-12-11T09:56:12.501Z,100638.00
2022-12-11T09:59:03.896Z,100641.00
2022-12-11T10:01:51.167Z,100641.00
2022-12-11T10:04:40.335Z,100634.00
2022-12-11T10:07:41.717Z,100633.00
2022-12-11T10:10:17.291Z,100620.00
2022-12-11T10:13:16.638Z,100613.00
2022-12-11T10:16:03.930Z,100613.00
2022-12-11T10:18:31.182Z,100608.00
2022-12-11T10:21:01.636Z,100619.00
2022-12-11T10:23:35.691Z,100624.00
2022-12-11T10:26:18.059Z,100609.00
2022-12-11T10:28:45.249Z,100600.00
2022-12-11T10:31:20.809Z,100593.00
2022-12-11T10:34:02.706Z,100597.00
2022-12-11T10:36:32.681Z,100598.00
2022-12-11T10:38:59.201Z,100582.00
2022-12-11T10:41:40.028Z,100586.00
2022-12-11T10:44:29.693Z,100575.00
2022-12-11T10:47:14.681Z,100578.00
2022-12-11T10:49:56.558Z,100582.00
2022-12-11T10:52:24.450Z,100577.00
2022-12-11T10:55:01.786Z,100572.00
2022-12-11T10:57:31.123Z,100579.00
2022-12-11T10:59:59.016Z,100568.00
2022-12-11T11:02:32.367Z,100573.00
2022-12-11T11:05:01.319Z,100565.00
2022-12-11T11:07:29.950Z,100566.00
2022-12-11T11:10:11.151Z,100563.00
2022-12-11T11:12:49.341Z,100566.00
2022-12-11T11:15:22.710Z,100559.00
2022-12-11T11:17:55.488Z,100568.00
2022-12-11T11:20:25.613Z,100549.00
2022-12-11T11:22:57.856Z,100548.00
2022-12-11T11:25:27.625Z,100551.00
2022-12-11T11:27:58.900Z,100553.00
2022-12-11T11:30:28.657Z,100556.00
2022-12-11T11:33:01.442Z,100546.00
2022-12-11T11:35:30.513Z,100532.00
2022-12-11T11:38:12.827Z,100532.00
2022-12-11T11:40:48.228Z,100536.00
2022-12-11T11:43:32.673Z,100530.00
2022-12-11T11:46:08.786Z,100531.00
2022-12-11T11:49:09.951Z,100536.00
2022-12-11T11:51:41.470Z,100533.00
2022-12-11T11:54:50.209Z,100538.00
2022-12-11T11:57:44.999Z,100536.00
2022-12-11T12:00:31.958Z,100531.00
2022-12-11T12:03:11.324Z,100529.00
2022-12-11T12:05:55.941Z,100528.00
2022-12-11T12:08:51.041Z,100528.00
2022-12-11T12:11:33.266Z,100520.00
2022-12-11T12:14:43.600Z,100523.00
2022-12-11T12:17:09.121Z,100523.00
2022-12-11T12:20:08.081Z,100512.00
2022-12-11T12:22:48.323Z,100526.00
2022-12-11T12:25:22.101Z,100518.00
2022-12-11T12:28:06.773Z,100523.00
2022-12-11T12:30:40.145Z,100518.00
2022-12-11T12:33:34.448Z,100512.00
2022-12-11T12:36:27.736Z,100523.00
2022-12-11T12:39:10.958Z,100514.00
2022-12-11T12:42:11.663Z,100507.00
2022-12-11T12:44:49.106Z,100504.00
2022-12-11T12:47:19.641Z,100502.00
2022-12-11T12:49:48.537Z,100490.00
2022-12-11T12:52:21.961Z,100504.00
2022-12-11T12:55:11.220Z,100505.00
2022-12-11T12:57:39.505Z,100499.00
2022-12-11T13:00:13.081Z,100498.00
2022-12-11T13:02:51.050Z,100497.00
2022-12-11T13:05:27.529Z,100484.00
2022-12-11T13:07:57.802Z,100488.00
2022-12-11T13:10:36.739Z,100491.00
2022-12-11T13:13:05.897Z,100488.00
2022-12-11T13:15:42.745Z,100494.00
2022-12-11T13:18:38.793Z,100500.00
2022-12-11T13:21:33.362Z,100494.00
2022-12-11T13:24:21.553Z,100487.00
2022-12-11T13:26:49.797Z,100497.00
2022-12-11T13:29:40.395Z,100502.00
2022-12-11T13:32:09.709Z,100500.00
2022-12-11T13:34:42.100Z,100496.00
2022-12-11T13:37:34.725Z,100506.00
2022-12-11T13:40:06.672Z,100497.00
2022-12-11T13:42:35.880Z,100492.00
2022-12-11T13:45:04.092Z,100494.00
2022-12-11T13:47:32.793Z,100495.00
2022-12-11T13:50:29.192Z,100493.00
2022-12-11T13:52:57.762Z,100494.00
2022-12-11T13:55:33.446Z,100495.00
2022-12-11T13:58:00.309Z,100496.00
2022-12-11T14:00:32.075Z,100495.00
2022-12-11T14:03:04.293Z,100491.00
2022-12-11T14:05:30.964Z,100487.00
2022-12-11T14:08:09.150Z,100498.00
2022-12-11T14:10:36.259Z,100492.00
2022-12-11T14:13:05.935Z,100491.00
2022-12-11T14:15:33.623Z,100491.00
2022-12-11T14:18:01.208Z,100494.00
2022-12-11T14:20:33.314Z,100499.00
2022-12-11T14:23:07.024Z,100486.00
2022-12-11T14:25:33.671Z,100497.00
2022-12-11T14:28:01.585Z,100495.00
2022-12-11T14:30:31.605Z,100491.00
2022-12-11T14:33:04.427Z,100488.00
2022-12-11T14:35:39.511Z,100485.00
2022-12-11T14:38:19.972Z,100481.00
2022-12-11T14:40:51.661Z,100478.00
2022-12-11T14:43:27.630Z,100476.00
2022-12-11T14:45:59.369Z,100486.00
2022-12-11T14:48:30.354Z,100473.00
2022-12-11T14:51:00.616Z,100479.00
2022-12-11T14:53:31.440Z,100483.00
2022-12-11T14:56:03.117Z,100482.00
2022-12-11T14:58:30.622Z,100489.00
2022-12-11T15:01:03.687Z,100484.00
2022-12-11T15:03:35.176Z,100482.00
2022-12-11T15:06:02.727Z,100479.00
2022-12-11T15:08:32.000Z,100489.00
2022-12-11T15:11:01.200Z,100483.00
2022-12-11T15:13:28.115Z,100486.00
2022-12-11T15:15:56.114Z,100488.00
2022-12-11T15:18:29.684Z,100484.00
2022-12-11T15:21:00.794Z,100492.00
2022-12-11T15:23:28.362Z,100490.00
2022-12-11T15:25:57.229Z,100491.00
2022-12-11T15:28:38.124Z,100503.00
2022-12-11T15:31:30.202Z,100495.00
2022-12-11T15:33:57.968Z,100494.00
2022-12-11T15:36:34.689Z,100489.00
2022-12-11T15:39:02.128Z,100479.00
2022-12-11T15:41:33.104Z,100486.00
2022-12-11T15:44:02.069Z,100491.00
2022-12-11T15:46:29.306Z,100497.00
2022-12-11T15:48:56.923Z,100492.00
2022-12-11T15:51:23.943Z,100492.00
2022-12-11T15:53:50.482Z,100487.00
2022-12-11T15:56:17.715Z,100498.00
2022-12-11T15:58:45.669Z,100498.00
2022-12-11T16:01:12.329Z,100493.00
2022-12-11T16:03:40.029Z,100493.00
2022-12-11T16:06:06.645Z,100490.00
2022-12-11T16:08:33.331Z,100495.00
2022-12-11T16:11:02.258Z,100503.00
2022-12-11T16:13:28.699Z,100505.00
2022-12-11T16:15:55.228Z,100504.00
2022-12-11T16:18:23.852Z,100506.00
2022-12-11T16:20:51.386Z,100496.00
2022-12-11T16:23:18.447Z,100497.00
2022-12-11T16:25:46.385Z,100496.00
2022-12-11T16:28:14.912Z,100494.00
2022-12-11T16:30:43.557Z,100492.00
2022-12-11T16:33:13.067Z,100489.00
2022-12-11T16:35:40.283Z,100482.00
2022-12-11T16:38:07.721Z,100497.00
2022-12-11T16:40:34.235Z,100494.00
2022-12-11T16:43:00.672Z,100486.00
2022-12-11T16:45:28.176Z,100491.00
2022-12-11T16:47:54.939Z,100488.00
2022-12-11T16:50:22.347Z,100492.00
2022-12-11T16:52:49.187Z,100491.00
2022-12-11T16:55:15.780Z,100488.00
2022-12-11T16:57:42.448Z,100500.00
2022-12-11T17:00:12.591Z,100495.00
2022-12-11T17:02:39.356Z,100492.00
2022-12-11T17:05:06.025Z,100492.00
2022-12-11T17:07:33.932Z,100490.00
2022-12-11T17:10:02.772Z,100493.00
2022-12-11T17:12:29.600Z,100487.00
2022-12-11T17:14:56.769Z,100486.00
2022-12-11T17:17:23.875Z,100483.00
2022-12-11T17:19:50.357Z,100473.00
2022-12-11T17:22:17.027Z,100478.00
2022-12-11T17:24:43.451Z,100479.00
2022-12-11T17:27:09.991Z,100485.00
2022-12-11T17:29:37.881Z,100485.00
2022-12-11T17:32:04.608Z,100493.00
2022-12-11T17:34:37.557Z,100487.00
2022-12-11T17:37:04.729Z,100483.00
2022-12-11T17:39:31.402Z,100484.00
2022-12-11T17:41:57.992Z,100485.00
2022-12-11T17:44:26.517Z,100478.00
2022-12-11T17:46:53.404Z,100479.00
2022-12-11T17:49:20.150Z,100476.00
2022-12-11T17:51:46.614Z,100469.00
2022-12-11T17:54:14.075Z,100475.00
2022-12-11T17:56:40.951Z,100479.00
2022-12-11T17:59:07.716Z,100476.00
2022-12-11T18:01:34.630Z,100473.00
2022-12-11T18:04:01.881Z,100469.00
2022-12-11T18:06:29.058Z,100474.00
2022-12-11T18:08:55.850Z,100474.00
2022-12-11T18:11:22.733Z,100475.00
2022-12-11T18:13:50.639Z,100470.00
2022-12-11T18:16:24.503Z,100474.00
2022-12-11T18:18:51.730Z,100477.00
2022-12-11T18:21:21.583Z,100474.00
2022-12-11T18:23:50.078Z,100473.00
2022-12-11T18:26:19.096Z,100475.00
2022-12-11T18:28:46.767Z,100481.00
2022-12-11T18:31:13.673Z,100476.00
2022-12-11T18:33:43.726Z,100479.00
2022-12-11T18:36:12.093Z,100485.00
2022-12-11T18:38:39.244Z,100476.00
2022-12-11T18:41:07.420Z,100485.00
2022-12-11T18:43:34.104Z,100481.00
2022-12-11T18:46:00.545Z,100482.00
2022-12-11T18:48:26.982Z,100485.00
2022-12-11T18:50:53.417Z,100477.00
2022-12-11T18:53:19.859Z,100475.00
2022-12-11T18:55:48.927Z,100476.00
2022-12-11T18:58:17.728Z,100473.00
2022-12-11T19:00:45.437Z,100472.00
2022-12-11T19:03:13.724Z,100476.00
2022-12-11T19:05:42.837Z,100469.00
2022-12-11T19:08:11.915Z,100477.00
2022-12-11T19:10:46.236Z,100478.00
2022-12-11T19:13:13.487Z,100478.00
2022-12-11T19:15:43.988Z,100470.00
2022-12-11T19:18:11.088Z,100472.00
2022-12-11T19:21:03.199Z,100467.00
2022-12-11T19:23:25.607Z,100466.00
2022-12-11T19:25:52.096Z,100460.00
2022-12-11T19:28:18.636Z,100470.00
2022-12-11T19:30:49.304Z,100469.00
2022-12-11T19:33:16.346Z,100462.00
2022-12-11T19:35:42.877Z,100476.00
2022-12-11T19:38:09.888Z,100471.00
2022-12-11T19:40:44.527Z,100473.00
2022-12-11T19:43:11.471Z,100469.00
2022-12-11T19:45:38.384Z,100471.00
2022-12-11T19:48:05.687Z,100479.00
2022-12-11T19:50:36.318Z,100482.00
2022-12-11T19:53:03.695Z,100482.00
2022-12-11T19:55:30.132Z,100469.00
2022-12-11T19:57:56.639Z,100475.00
2022-12-11T20:00:24.208Z,100469.00
2022-12-11T20:02:51.169Z,100475.00
2022-12-11T20:05:17.741Z,100473.00
2022-12-11T20:07:44.718Z,100470.00
2022-12-11T20:10:11.721Z,100481.00
2022-12-11T20:12:38.350Z,100472.00
2022-12-11T20:15:06.121Z,100471.00
2022-12-11T20:17:33.350Z,100467.00
2022-12-11T20:20:00.103Z,100471.00
2022-12-11T20:22:26.812Z,100476.00
2022-12-11T20:24:54.900Z,100474.00
2022-12-11T20:27:21.524Z,100466.00
2022-12-11T20:29:48.053Z,100464.00
2022-12-11T20:32:14.532Z,100474.00
2022-12-11T20:34:41.486Z,100456.00
2022-12-11T20:37:07.989Z,100474.00
2022-12-11T20:39:35.549Z,100468.00
2022-12-11T20:42:04.786Z,100471.00
2022-12-11T20:44:31.983Z,100475.00
2022-12-11T20:46:58.563Z,100479.00
2022-12-11T20:49:25.254Z,100476.00
2022-12-11T20:51:51.888Z,100470.00
2022-12-11T20:54:18.362Z,100476.00
2022-12-11T20:56:44.829Z,100481.00
2022-12-11T20:59:11.639Z,100472.00
2022-12-11T21:01:38.216Z,100469.00
2022-12-11T21:04:04.668Z,100465.00
2022-12-11T21:06:33.965Z,100467.00
2022-12-11T21:09:03.295Z,100464.00
2022-12-11T21:11:29.800Z,100477.00
2022-12-11T21:13:56.265Z,100478.00
2022-12-11T21:16:23.751Z,100477.00
2022-12-11T21:18:50.643Z,100471.00
2022-12-11T21:21:17.955Z,100476.00
2022-12-11T21:23:45.002Z,100480.00
2022-12-11T21:26:11.972Z,100479.00
2022-12-11T21:28:38.495Z,100466.00
2022-12-11T21:31:08.053Z,100482.00
2022-12-11T21:33:34.959Z,100481.00
2022-12-11T21:36:01.414Z,100468.00
2022-12-11T21:38:28.764Z,100473.00
2022-12-11T21:40:56.019Z,100476.00
2022-12-11T21:43:23.064Z,100476.00
2022-12-11T21:46:00.961Z,100476.00
2022-12-11T21:48:28.919Z,100477.00
2022-12-11T21:50:55.527Z,100470.00
2022-12-11T21:53:21.985Z,100476.00
2022-12-11T21:55:48.450Z,100462.00
2022-12-11T21:58:14.931Z,100470.00
2022-12-11T22:00:41.468Z,100457.00
2022-12-11T22:03:08.115Z,100462.00
2022-12-11T22:05:34.572Z,100454.00
2022-12-11T22:08:01.052Z,100466.00
2022-12-11T22:10:28.912Z,100464.00
2022-12-11T22:12:55.385Z,100457.00
2022-12-11T22:15:21.905Z,100462.00
2022-12-11T22:17:48.539Z,100475.00
2022-12-11T22:20:15.035Z,100455.00
2022-12-11T22:22:41.645Z,100458.00
2022-12-11T22:25:08.527Z,100454.00
2022-12-11T22:27:35.092Z,100451.00
2022-12-11T22:30:01.522Z,100448.00
2022-12-11T22:32:28.034Z,100458.00
2022-12-11T22:34:57.685Z,100447.00
2022-12-11T22:37:24.972Z,100454.00
2022-12-11T22:39:51.478Z,100454.00
2022-12-11T22:42:17.945Z,100460.00
2022-12-11T22:44:44.541Z,100459.00
2022-12-11T22:47:11.496Z,100465.00
2022-12-11T22:49:38.094Z,100463.00
2022-12-11T22:52:04.924Z,100467.00
2022-12-11T22:54:31.581Z,100472.00
2022-12-11T22:56:58.021Z,100466.00
2022-12-11T22:59:24.472Z,100472.00
2022-12-11T23:01:50.904Z,100467.00
2022-12-11T23:04:17.355Z,100474.00
2022-12-11T23:06:43.801Z,100467.00
2022-12-11T23:09:10.494Z,100473.00
2022-12-11T23:11:38.358Z,100470.00
2022-12-11T23:14:08.280Z,100459.00
2022-12-11T23:16:35.122Z,100448.00
2022-12-11T23:19:01.866Z,100457.00
2022-12-11T23:21:29.188Z,100446.00
2022-12-11T23:23:56.728Z,100448.00
2022-12-11T23:26:23.703Z,100455.00
2022-12-11T23:28:50.286Z,100463.00
2022-12-11T23:31:18.181Z,100451.00
2022-12-11T23:33:45.067Z,100453.00
2022-12-11T23:36:12.476Z,100454.00
2022-12-11T23:38:40.105Z,100460.00
2022-12-11T23:41:08.059Z,100457.00
2022-12-11T23:43:36.832Z,100462.00
2022-12-11T23:46:18.254Z,100475.00
2022-12-11T23:48:44.981Z,100474.00
2022-12-11T23:51:17.600Z,100472.00
2022-12-11T23:53:44.511Z,100477.00
2022-12-11T23:56:17.455Z,100476.00
2022-12-11T23:58:43.960Z,100479.00
